PWSweather.com
Personal Weather Stations
Station Observations
KV9EWX
Winnebago, Il, Winnebago, IL 61088

Winnebago, IlWinnebago, IL 61088

Lat: 42.261175, Lon: -89.236369

Elevation: 892

Station Type: Lacrosse ws-2811

Latest ConditionsUpdated 6:25:29 PM CDT Saturday, Aug 29, 2015
Currently Today's Max Today's Min Today's Average
Temperature 68.6°F20.3°C 72.1°F22.3°C 58.5°F14.7°C 63.6°F17.6°C
Dew Point 63.6°F17.6°C 67.0°F19.4°C 55.8°F13.2°C 60.3°F15.7°C
Winds 0.7 mph NNW1.1 kmh NNW 8.7 mph SE14.0 kmh SE - 2.5 mph 4.0 kmh
Wind Gusts 4.4 mph7.1 kmh 16.4 mph26.4 kmh - -
Humidity 84% 92% 82% 89%
Pressure 29.68 in1005.1 mb 29.69 in1005.4 mb 28.85 in977.0 mb -
Precipitation - 1.32 in33.5 mm - -
Hour Temp Dew Point Humidity Winds Wind Gusts Pressure Precip Precip Rate Daily Precip Total
06:25 PM 68.6°F20.3°C 63.6°F17.6°C 84% 0.7 mph NNW1.1 kmh NNW 4.4 mph7.1 kmh 29.68 in1005.1 mb 0.00 in0.0 mm 0.00 in0.0 mm 1.32 in33.5 mm
06:20 PM 68.8°F20.4°C 63.8°F17.7°C 84% 0.8 mph N1.3 kmh N 1.6 mph2.6 kmh 29.69 in1005.4 mb 0.00 in0.0 mm 0.00 in0.0 mm 1.32 in33.5 mm
06:15 PM 68.8°F20.4°C 63.8°F17.7°C 84% 0.5 mph NNW0.8 kmh NNW 1.2 mph1.9 kmh 29.68 in1005.1 mb 0.00 in0.0 mm 0.00 in0.0 mm 1.32 in33.5 mm
06:10 PM 69.0°F20.6°C 64.0°F17.8°C 84% 0.6 mph NNW1.0 kmh NNW 1.9 mph3.1 kmh 29.69 in1005.4 mb 0.00 in0.0 mm 0.00 in0.0 mm 1.32 in33.5 mm
06:05 PM 69.2°F20.7°C 64.2°F17.9°C 84% 1.0 mph NW1.6 kmh NW 1.9 mph3.1 kmh 29.68 in1005.1 mb 0.00 in0.0 mm 0.00 in0.0 mm 1.32 in33.5 mm
06:00 PM 69.4°F20.8°C 64.3°F17.9°C 84% 0.3 mph WNW0.5 kmh WNW 0.7 mph1.1 kmh 29.68 in1005.1 mb 0.00 in0.0 mm 0.00 in0.0 mm 1.32 in33.5 mm
05:55 PM 69.4°F20.8°C 64.0°F17.8°C 83% Calm Calm 1.9 mph3.1 kmh 29.68 in1005.1 mb 0.00 in0.0 mm 0.00 in0.0 mm 1.32 in33.5 mm
05:50 PM 69.5°F20.8°C 64.1°F17.8°C 83% 0.4 mph WNW0.6 kmh WNW 1.9 mph3.1 kmh 29.68 in1005.1 mb 0.00 in0.0 mm 0.00 in0.0 mm 1.32 in33.5 mm
05:45 PM 69.5°F20.8°C 64.1°F17.8°C 83% 1.1 mph NNW1.8 kmh NNW 2.3 mph3.7 kmh 29.68 in1005.1 mb 0.00 in0.0 mm 0.00 in0.0 mm 1.32 in33.5 mm
05:40 PM 69.5°F20.8°C 64.1°F17.8°C 83% 1.3 mph NNW2.1 kmh NNW 3.1 mph5.0 kmh 29.68 in1005.1 mb 0.00 in0.0 mm 0.00 in0.0 mm 1.32 in33.5 mm
05:35 PM 69.8°F21.0°C 64.5°F18.1°C 83% 1.2 mph NW1.9 kmh NW 3.1 mph5.0 kmh 29.68 in1005.1 mb 0.00 in0.0 mm 0.00 in0.0 mm 1.32 in33.5 mm
05:30 PM 69.8°F21.0°C 64.5°F18.1°C 83% 0.9 mph N1.4 kmh N 2.8 mph4.5 kmh 29.68 in1005.1 mb 0.00 in0.0 mm 0.00 in0.0 mm 1.32 in33.5 mm
05:25 PM 69.6°F20.9°C 64.3°F17.9°C 83% Calm Calm 1.6 mph2.6 kmh 28.87 in977.7 mb 0.00 in0.0 mm 0.00 in0.0 mm 1.32 in33.5 mm
05:20 PM 69.8°F21.0°C 64.5°F18.1°C 83% 0.8 mph 1.3 kmh 1.6 mph2.6 kmh 28.86 in977.3 mb 0.00 in0.0 mm 0.00 in0.0 mm 1.32 in33.5 mm
05:15 PM 69.8°F21.0°C 64.5°F18.1°C 83% 0.4 mph N0.6 kmh N 2.3 mph3.7 kmh 28.88 in978.0 mb 0.00 in0.0 mm 0.00 in0.0 mm 1.32 in33.5 mm
05:10 PM 70.0°F21.1°C 64.3°F17.9°C 82% 0.9 mph NNW1.4 kmh NNW 2.3 mph3.7 kmh 28.86 in977.3 mb 0.00 in0.0 mm 0.00 in0.0 mm 1.32 in33.5 mm
05:05 PM 70.2°F21.2°C 64.5°F18.1°C 82% 0.4 mph NNW0.6 kmh NNW 1.9 mph3.1 kmh 28.87 in977.7 mb 0.00 in0.0 mm 0.00 in0.0 mm 1.32 in33.5 mm
05:00 PM 70.3°F21.3°C 64.6°F18.1°C 82% 0.7 mph NNW1.1 kmh NNW 1.9 mph3.1 kmh 28.88 in978.0 mb 0.00 in0.0 mm 0.00 in0.0 mm 1.32 in33.5 mm
04:55 PM 70.5°F21.4°C 64.8°F18.2°C 82% 1.0 mph NNW1.6 kmh NNW 1.9 mph3.1 kmh 28.88 in978.0 mb 0.00 in0.0 mm 0.00 in0.0 mm 1.32 in33.5 mm
04:50 PM 70.3°F21.3°C 64.6°F18.1°C 82% Calm Calm 1.2 mph1.9 kmh 28.87 in977.7 mb 0.00 in0.0 mm 0.00 in0.0 mm 1.32 in33.5 mm
04:45 PM 70.3°F21.3°C 64.6°F18.1°C 82% 0.3 mph 0.5 kmh 1.2 mph1.9 kmh 28.87 in977.7 mb 0.00 in0.0 mm 0.00 in0.0 mm 1.32 in33.5 mm
04:40 PM 70.5°F21.4°C 65.2°F18.4°C 83% 0.6 mph NNE1.0 kmh NNE 3.1 mph5.0 kmh 28.88 in978.0 mb 0.00 in0.0 mm 0.00 in0.0 mm 1.32 in33.5 mm
04:35 PM 70.5°F21.4°C 65.2°F18.4°C 83% 0.5 mph 0.8 kmh 4.4 mph7.1 kmh 28.88 in978.0 mb 0.00 in0.0 mm 0.00 in0.0 mm 1.32 in33.5 mm
04:30 PM 70.9°F21.6°C 65.5°F18.6°C 83% 2.5 mph NNE4.0 kmh NNE 4.4 mph7.1 kmh 28.89 in978.3 mb 0.00 in0.0 mm 0.00 in0.0 mm 1.32 in33.5 mm
04:25 PM 70.9°F21.6°C 65.5°F18.6°C 83% 0.9 mph 1.4 kmh 5.1 mph8.2 kmh 28.88 in978.0 mb 0.00 in0.0 mm 0.00 in0.0 mm 1.32 in33.5 mm
04:20 PM 71.4°F21.9°C 65.7°F18.7°C 82% 2.0 mph N3.2 kmh N 5.1 mph8.2 kmh 28.89 in978.3 mb 0.00 in0.0 mm 0.00 in0.0 mm 1.32 in33.5 mm
04:15 PM 71.6°F22.0°C 65.9°F18.8°C 82% 1.9 mph N3.1 kmh N 3.5 mph5.6 kmh 28.88 in978.0 mb 0.00 in0.0 mm 0.00 in0.0 mm 1.32 in33.5 mm
04:10 PM 72.0°F22.2°C 66.6°F19.2°C 83% 0.9 mph NNW1.4 kmh NNW 1.6 mph2.6 kmh 28.89 in978.3 mb 0.00 in0.0 mm 0.00 in0.0 mm 1.32 in33.5 mm
04:05 PM 72.1°F22.3°C 66.7°F19.3°C 83% 0.5 mph NW0.8 kmh NW 1.2 mph1.9 kmh 28.88 in978.0 mb 0.00 in0.0 mm 0.00 in0.0 mm 1.32 in33.5 mm
04:00 PM 72.1°F22.3°C 66.7°F19.3°C 83% 0.6 mph NW1.0 kmh NW 1.9 mph3.1 kmh 28.88 in978.0 mb 0.00 in0.0 mm 0.00 in0.0 mm 1.32 in33.5 mm
03:55 PM 72.1°F22.3°C 66.7°F19.3°C 83% 0.5 mph WSW0.8 kmh WSW 3.9 mph6.3 kmh 28.88 in978.0 mb 0.00 in0.0 mm 0.00 in0.0 mm 1.32 in33.5 mm
03:50 PM 72.1°F22.3°C 67.0°F19.4°C 84% 1.2 mph NNW1.9 kmh NNW 4.4 mph7.1 kmh 28.89 in978.3 mb 0.00 in0.0 mm 0.00 in0.0 mm 1.32 in33.5 mm
03:45 PM 71.6°F22.0°C 66.9°F19.4°C 85% 2.5 mph NW4.0 kmh NW 4.4 mph7.1 kmh 28.89 in978.3 mb 0.00 in0.0 mm 0.00 in0.0 mm 1.32 in33.5 mm
03:40 PM 71.2°F21.8°C 66.8°F19.3°C 86% 0.5 mph W0.8 kmh W 3.1 mph5.0 kmh 28.88 in978.0 mb 0.00 in0.0 mm 0.00 in0.0 mm 1.32 in33.5 mm
03:35 PM 70.7°F21.5°C 66.3°F19.1°C 86% 0.4 mph NW0.6 kmh NW 3.1 mph5.0 kmh 28.88 in978.0 mb 0.00 in0.0 mm 0.00 in0.0 mm 1.32 in33.5 mm
03:30 PM 69.8°F21.0°C 65.5°F18.6°C 86% 0.6 mph NNW1.0 kmh NNW 1.6 mph2.6 kmh 28.86 in977.3 mb 0.00 in0.0 mm 0.00 in0.0 mm 1.32 in33.5 mm
03:25 PM 69.2°F20.7°C 64.8°F18.2°C 86% 0.6 mph 1.0 kmh 1.6 mph2.6 kmh 28.90 in978.7 mb 0.00 in0.0 mm 0.00 in0.0 mm 1.32 in33.5 mm
03:20 PM 68.8°F20.4°C 64.8°F18.2°C 87% 1.0 mph 1.6 kmh 1.6 mph2.6 kmh 28.88 in978.0 mb 0.00 in0.0 mm 0.00 in0.0 mm 1.32 in33.5 mm
03:15 PM 68.5°F20.3°C 64.5°F18.1°C 87% 0.5 mph 0.8 kmh 2.3 mph3.7 kmh 28.90 in978.7 mb 0.00 in0.0 mm 0.00 in0.0 mm 1.32 in33.5 mm
03:10 PM 68.3°F20.2°C 64.3°F17.9°C 87% 1.4 mph N2.3 kmh N 2.3 mph3.7 kmh 28.90 in978.7 mb 0.00 in0.0 mm 0.00 in0.0 mm 1.32 in33.5 mm
03:05 PM 68.1°F20.1°C 64.1°F17.8°C 87% 0.5 mph 0.8 kmh 2.3 mph3.7 kmh 28.91 in979.0 mb 0.00 in0.0 mm 0.00 in0.0 mm 1.32 in33.5 mm
03:00 PM 68.1°F20.1°C 63.8°F17.7°C 86% 0.5 mph NNE0.8 kmh NNE 2.8 mph4.5 kmh 28.89 in978.3 mb 0.00 in0.0 mm 0.00 in0.0 mm 1.32 in33.5 mm
02:55 PM 68.1°F20.1°C 63.8°F17.7°C 86% 1.2 mph N1.9 kmh N 2.8 mph4.5 kmh 28.88 in978.0 mb 0.00 in0.0 mm 0.00 in0.0 mm 1.32 in33.5 mm
02:50 PM 68.1°F20.1°C 63.8°F17.7°C 86% 1.2 mph N1.9 kmh N 2.8 mph4.5 kmh 28.91 in979.0 mb 0.00 in0.0 mm 0.00 in0.0 mm 1.32 in33.5 mm
02:44 PM 68.3°F20.2°C 64.0°F17.8°C 86% 0.7 mph NNE1.1 kmh NNE 2.3 mph3.7 kmh 28.89 in978.3 mb 0.00 in0.0 mm 0.00 in0.0 mm 1.32 in33.5 mm
02:40 PM 68.5°F20.3°C 64.5°F18.1°C 87% 1.2 mph 1.9 kmh 1.9 mph3.1 kmh 28.91 in979.0 mb 0.00 in0.0 mm 0.00 in0.0 mm 1.32 in33.5 mm
02:35 PM 68.5°F20.3°C 64.5°F18.1°C 87% 1.0 mph 1.6 kmh 1.6 mph2.6 kmh 28.90 in978.7 mb 0.00 in0.0 mm 0.00 in0.0 mm 1.32 in33.5 mm
02:29 PM 68.5°F20.3°C 64.5°F18.1°C 87% Calm Calm 1.6 mph2.6 kmh 28.90 in978.7 mb 0.00 in0.0 mm 0.00 in0.0 mm 1.32 in33.5 mm
02:24 PM 68.3°F20.2°C 64.3°F17.9°C 87% Calm Calm 2.3 mph3.7 kmh 28.88 in978.0 mb 0.00 in0.0 mm 0.00 in0.0 mm 1.32 in33.5 mm
02:19 PM 68.3°F20.2°C 64.3°F17.9°C 87% 1.0 mph ESE1.6 kmh ESE 2.3 mph3.7 kmh 28.87 in977.7 mb 0.00 in0.0 mm 0.00 in0.0 mm 1.32 in33.5 mm
02:14 PM 68.1°F20.1°C 64.1°F17.8°C 87% 0.5 mph SE0.8 kmh SE 1.6 mph2.6 kmh 28.90 in978.7 mb 0.00 in0.0 mm 0.00 in0.0 mm 1.32 in33.5 mm
02:09 PM 68.1°F20.1°C 64.1°F17.8°C 87% 0.6 mph SW1.0 kmh SW 1.6 mph2.6 kmh 28.87 in977.7 mb 0.00 in0.0 mm 0.00 in0.0 mm 1.32 in33.5 mm
02:04 PM 68.1°F20.1°C 64.4°F18.0°C 88% 0.3 mph SW0.5 kmh SW 1.2 mph1.9 kmh 28.87 in977.7 mb 0.00 in0.0 mm 0.00 in0.0 mm 1.32 in33.5 mm
01:59 PM 68.1°F20.1°C 64.4°F18.0°C 88% 0.4 mph SW0.6 kmh SW 1.2 mph1.9 kmh 28.86 in977.3 mb 0.00 in0.0 mm 0.00 in0.0 mm 1.32 in33.5 mm
01:54 PM 68.3°F20.2°C 64.6°F18.1°C 88% 0.5 mph SW0.8 kmh SW 1.2 mph1.9 kmh 28.89 in978.3 mb 0.00 in0.0 mm 0.00 in0.0 mm 1.32 in33.5 mm
01:49 PM 68.1°F20.1°C 64.4°F18.0°C 88% Calm Calm -- 28.85 in977.0 mb 0.00 in0.0 mm 0.00 in0.0 mm 1.32 in33.5 mm
01:44 PM 68.3°F20.2°C 64.6°F18.1°C 88% Calm Calm -- 28.88 in978.0 mb 0.00 in0.0 mm 0.00 in0.0 mm 1.32 in33.5 mm
01:39 PM 68.5°F20.3°C 64.8°F18.2°C 88% Calm Calm 1.2 mph1.9 kmh 28.88 in978.0 mb 0.00 in0.0 mm 0.00 in0.0 mm 1.32 in33.5 mm
01:34 PM 68.5°F20.3°C 64.8°F18.2°C 88% Calm Calm 1.6 mph2.6 kmh 28.86 in977.3 mb 0.00 in0.0 mm 0.00 in0.0 mm 1.32 in33.5 mm
01:29 PM 68.5°F20.3°C 64.8°F18.2°C 88% 0.6 mph SSE1.0 kmh SSE 1.9 mph3.1 kmh 28.87 in977.7 mb 0.00 in0.0 mm 0.00 in0.0 mm 1.32 in33.5 mm
01:24 PM 68.5°F20.3°C 64.8°F18.2°C 88% 1.0 mph S1.6 kmh S 1.9 mph3.1 kmh 28.90 in978.7 mb 0.00 in0.0 mm 0.00 in0.0 mm 1.32 in33.5 mm
01:19 PM 68.6°F20.3°C 64.9°F18.3°C 88% 0.5 mph S0.8 kmh S 1.2 mph1.9 kmh 28.88 in978.0 mb 0.00 in0.0 mm 0.00 in0.0 mm 1.32 in33.5 mm
01:14 PM 68.5°F20.3°C 64.8°F18.2°C 88% 0.3 mph SSE0.5 kmh SSE 3.1 mph5.0 kmh 28.92 in979.3 mb 0.00 in0.0 mm 0.00 in0.0 mm 1.32 in33.5 mm
01:09 PM 68.3°F20.2°C 64.6°F18.1°C 88% 0.6 mph S1.0 kmh S 4.7 mph7.6 kmh 28.91 in979.0 mb 0.00 in0.0 mm 0.00 in0.0 mm 1.32 in33.5 mm
01:04 PM 68.1°F20.1°C 64.4°F18.0°C 88% 1.6 mph SE2.6 kmh SE 4.7 mph7.6 kmh 28.90 in978.7 mb 0.00 in0.0 mm 0.00 in0.0 mm 1.32 in33.5 mm
12:59 PM 67.9°F19.9°C 64.2°F17.9°C 88% 2.1 mph SE3.4 kmh SE 4.4 mph7.1 kmh 28.87 in977.7 mb 0.00 in0.0 mm 0.00 in0.0 mm 1.32 in33.5 mm
12:54 PM 67.7°F19.8°C 64.3°F17.9°C 89% 1.4 mph SSE2.3 kmh SSE 4.4 mph7.1 kmh 28.91 in979.0 mb 0.00 in0.0 mm 0.00 in0.0 mm 1.32 in33.5 mm
12:49 PM 67.4°F19.7°C 63.7°F17.6°C 88% 1.3 mph S2.1 kmh S 4.4 mph7.1 kmh 28.91 in979.0 mb 0.00 in0.0 mm 0.00 in0.0 mm 1.32 in33.5 mm
12:44 PM 67.2°F19.6°C 63.5°F17.5°C 88% 2.4 mph SE3.9 kmh SE 4.4 mph7.1 kmh 28.89 in978.3 mb 0.00 in0.0 mm 0.00 in0.0 mm 1.32 in33.5 mm
12:39 PM 67.2°F19.6°C 63.5°F17.5°C 88% 2.7 mph SE4.3 kmh SE 3.5 mph5.6 kmh 28.87 in977.7 mb 0.00 in0.0 mm 0.00 in0.0 mm 1.32 in33.5 mm
12:34 PM 67.2°F19.6°C 63.5°F17.5°C 88% 1.6 mph SE2.6 kmh SE 6.7 mph10.8 kmh 28.91 in979.0 mb 0.00 in0.0 mm 0.00 in0.0 mm 1.32 in33.5 mm
12:29 PM 67.0°F19.4°C 63.3°F17.4°C 88% 1.5 mph SE2.4 kmh SE 8.6 mph13.8 kmh 28.91 in979.0 mb 0.00 in0.0 mm 0.00 in0.0 mm 1.32 in33.5 mm
12:24 PM 67.2°F19.6°C 63.5°F17.5°C 88% 4.6 mph SE7.4 kmh SE 8.6 mph13.8 kmh 28.91 in979.0 mb 0.00 in0.0 mm 0.00 in0.0 mm 1.32 in33.5 mm
12:19 PM 67.4°F19.7°C 64.0°F17.8°C 89% 3.6 mph SE5.8 kmh SE 6.3 mph10.1 kmh 28.90 in978.7 mb 0.00 in0.0 mm 0.00 in0.0 mm 1.32 in33.5 mm
12:14 PM 67.4°F19.7°C 64.0°F17.8°C 89% 1.8 mph SSE2.9 kmh SSE 8.6 mph13.8 kmh 28.91 in979.0 mb 0.00 in0.0 mm 0.00 in0.0 mm 1.32 in33.5 mm
12:09 PM 67.4°F19.7°C 64.0°F17.8°C 89% 3.8 mph SSE6.1 kmh SSE 8.6 mph13.8 kmh 28.93 in979.7 mb 0.00 in0.0 mm 0.00 in0.0 mm 1.32 in33.5 mm
12:04 PM 67.4°F19.7°C 64.4°F18.0°C 90% 4.0 mph SSE6.4 kmh SSE 8.6 mph13.8 kmh 28.91 in979.0 mb 0.00 in0.0 mm 0.00 in0.0 mm 1.32 in33.5 mm
11:59 AM 67.4°F19.7°C 64.4°F18.0°C 90% 3.6 mph SE5.8 kmh SE 7.9 mph12.7 kmh 28.92 in979.3 mb 0.00 in0.0 mm 0.00 in0.0 mm 1.32 in33.5 mm
11:54 AM 67.0°F19.4°C 64.0°F17.8°C 90% 3.1 mph SE5.0 kmh SE 7.9 mph12.7 kmh 28.92 in979.3 mb 0.00 in0.0 mm 0.00 in0.0 mm 1.32 in33.5 mm
11:49 AM 66.3°F19.1°C 63.6°F17.6°C 91% 4.9 mph SE7.9 kmh SE 7.9 mph12.7 kmh 28.92 in979.3 mb 0.00 in0.0 mm 0.00 in0.0 mm 1.32 in33.5 mm
11:44 AM 65.7°F18.7°C 62.9°F17.2°C 91% 2.7 mph SE4.3 kmh SE 7.5 mph12.1 kmh 28.93 in979.7 mb 0.00 in0.0 mm 0.00 in0.0 mm 1.32 in33.5 mm
11:39 AM 65.1°F18.4°C 62.4°F16.9°C 91% 3.7 mph SE6.0 kmh SE 7.5 mph12.1 kmh 28.91 in979.0 mb 0.00 in0.0 mm 0.00 in0.0 mm 1.32 in33.5 mm
11:34 AM 64.6°F18.1°C 61.9°F16.6°C 91% 2.2 mph SE3.5 kmh SE 6.7 mph10.8 kmh 28.93 in979.7 mb 0.00 in0.0 mm 0.00 in0.0 mm 1.32 in33.5 mm
11:29 AM 64.6°F18.1°C 61.9°F16.6°C 91% 3.6 mph SE5.8 kmh SE 6.7 mph10.8 kmh 28.92 in979.3 mb 0.00 in0.0 mm 0.00 in0.0 mm 1.32 in33.5 mm
11:24 AM 64.4°F18.0°C 62.0°F16.7°C 92% 2.3 mph SE3.7 kmh SE 4.7 mph7.6 kmh 28.94 in980.0 mb 0.00 in0.0 mm 0.00 in0.0 mm 1.32 in33.5 mm
11:19 AM 63.9°F17.7°C 61.5°F16.4°C 92% 3.1 mph E5.0 kmh E 4.7 mph7.6 kmh 28.92 in979.3 mb 0.00 in0.0 mm 0.00 in0.0 mm 1.32 in33.5 mm
11:14 AM 63.2°F17.3°C 60.5°F15.8°C 91% 2.8 mph SE4.5 kmh SE 4.4 mph7.1 kmh 28.91 in979.0 mb 0.00 in0.0 mm 0.00 in0.0 mm 1.32 in33.5 mm
11:09 AM 63.0°F17.2°C 60.4°F15.8°C 91% 0.9 mph SE1.4 kmh SE 6.0 mph9.7 kmh 28.93 in979.7 mb 0.00 in0.0 mm 0.00 in0.0 mm 1.32 in33.5 mm
11:04 AM 62.9°F17.2°C 60.2°F15.7°C 91% 3.5 mph ESE5.6 kmh ESE 6.0 mph9.7 kmh 28.94 in980.0 mb 0.00 in0.0 mm 0.00 in0.0 mm 1.32 in33.5 mm
10:59 AM 62.7°F17.1°C 60.0°F15.6°C 91% 2.3 mph ESE3.7 kmh ESE 6.0 mph9.7 kmh 28.90 in978.7 mb 0.00 in0.0 mm 0.00 in0.0 mm 1.32 in33.5 mm
10:54 AM 62.4°F16.9°C 59.7°F15.4°C 91% 2.9 mph SE4.7 kmh SE 6.0 mph9.7 kmh 28.93 in979.7 mb 0.00 in0.0 mm 0.00 in0.0 mm 1.32 in33.5 mm
10:49 AM 62.0°F16.7°C 59.3°F15.2°C 91% 2.4 mph E3.9 kmh E 6.0 mph9.7 kmh 28.94 in980.0 mb 0.00 in0.0 mm 0.00 in0.0 mm 1.32 in33.5 mm
10:44 AM 61.6°F16.4°C 58.9°F14.9°C 91% 0.9 mph SE1.4 kmh SE 8.2 mph13.2 kmh 28.94 in980.0 mb 0.00 in0.0 mm 0.00 in0.0 mm 1.32 in33.5 mm
10:39 AM 61.5°F16.4°C 58.8°F14.9°C 91% 1.6 mph ESE2.6 kmh ESE 8.2 mph13.2 kmh 28.94 in980.0 mb 0.00 in0.0 mm 0.00 in0.0 mm 1.32 in33.5 mm
10:34 AM 61.5°F16.4°C 58.8°F14.9°C 91% 3.0 mph E4.8 kmh E 6.0 mph9.7 kmh 28.93 in979.7 mb 0.00 in0.0 mm 0.00 in0.0 mm 1.32 in33.5 mm
10:29 AM 61.3°F16.3°C 58.6°F14.8°C 91% 1.0 mph ESE1.6 kmh ESE 5.1 mph8.2 kmh 28.92 in979.3 mb 0.00 in0.0 mm 0.00 in0.0 mm 1.32 in33.5 mm
10:24 AM 61.1°F16.2°C 58.4°F14.7°C 91% 2.3 mph E3.7 kmh E 5.4 mph8.7 kmh 28.93 in979.7 mb 0.00 in0.0 mm 0.00 in0.0 mm 1.32 in33.5 mm
10:19 AM 60.9°F16.1°C 58.2°F14.6°C 91% 3.7 mph SE6.0 kmh SE 6.7 mph10.8 kmh 28.91 in979.0 mb 0.00 in0.0 mm 0.00 in0.0 mm 1.32 in33.5 mm
10:14 AM 60.9°F16.1°C 58.5°F14.7°C 92% 3.2 mph SE5.1 kmh SE 7.5 mph12.1 kmh 28.92 in979.3 mb 0.00 in0.0 mm 0.00 in0.0 mm 1.32 in33.5 mm
10:09 AM 60.7°F15.9°C 58.3°F14.6°C 92% 4.8 mph E7.7 kmh E 7.5 mph12.1 kmh 28.93 in979.7 mb 0.00 in0.0 mm 0.00 in0.0 mm 1.32 in33.5 mm
10:04 AM 60.4°F15.8°C 58.1°F14.5°C 92% 2.8 mph E4.5 kmh E 6.3 mph10.1 kmh 28.91 in979.0 mb 0.00 in0.0 mm 0.00 in0.0 mm 1.32 in33.5 mm
09:59 AM 60.4°F15.8°C 58.1°F14.5°C 92% 1.9 mph SE3.1 kmh SE 6.7 mph10.8 kmh 28.94 in980.0 mb 0.00 in0.0 mm 0.00 in0.0 mm 1.32 in33.5 mm
09:54 AM 60.0°F15.6°C 57.7°F14.3°C 92% 2.1 mph ESE3.4 kmh ESE 10.5 mph16.9 kmh 28.92 in979.3 mb 0.00 in0.0 mm 0.00 in0.0 mm 1.32 in33.5 mm
09:49 AM 59.8°F15.4°C 57.5°F14.2°C 92% 2.5 mph E4.0 kmh E 10.5 mph16.9 kmh 28.93 in979.7 mb 0.00 in0.0 mm 0.00 in0.0 mm 1.32 in33.5 mm
09:44 AM 59.8°F15.4°C 57.5°F14.2°C 92% 3.1 mph SE5.0 kmh SE 5.4 mph8.7 kmh 28.92 in979.3 mb 0.00 in0.0 mm 0.00 in0.0 mm 1.32 in33.5 mm
09:39 AM 59.8°F15.4°C 57.4°F14.1°C 92% 1.7 mph ESE2.7 kmh ESE 9.8 mph15.8 kmh 28.92 in979.3 mb 0.00 in0.0 mm 0.00 in0.0 mm 1.32 in33.5 mm
09:34 AM 59.8°F15.4°C 57.5°F14.2°C 92% 3.2 mph ESE5.1 kmh ESE 9.8 mph15.8 kmh 28.93 in979.7 mb 0.00 in0.0 mm 0.00 in0.0 mm 1.32 in33.5 mm
09:29 AM 59.8°F15.4°C 57.5°F14.2°C 92% 2.7 mph ESE4.3 kmh ESE 7.9 mph12.7 kmh 28.91 in979.0 mb 0.00 in0.0 mm 0.00 in0.0 mm 1.32 in33.5 mm
09:24 AM 59.8°F15.4°C 57.5°F14.2°C 92% 2.2 mph E3.5 kmh E 7.9 mph12.7 kmh 28.93 in979.7 mb 0.00 in0.0 mm 0.00 in0.0 mm 1.32 in33.5 mm
09:19 AM 59.8°F15.4°C 57.5°F14.2°C 92% 2.3 mph SE3.7 kmh SE 7.0 mph11.3 kmh 28.91 in979.0 mb 0.00 in0.0 mm 0.00 in0.0 mm 1.32 in33.5 mm
09:14 AM 59.8°F15.4°C 57.5°F14.2°C 92% 3.1 mph SE5.0 kmh SE 6.0 mph9.7 kmh 28.91 in979.0 mb 0.00 in0.0 mm 0.00 in0.0 mm 1.32 in33.5 mm
09:09 AM 59.8°F15.4°C 57.5°F14.2°C 92% 3.5 mph ESE5.6 kmh ESE 8.2 mph13.2 kmh 28.91 in979.0 mb 0.00 in0.0 mm 0.00 in0.0 mm 1.32 in33.5 mm
09:04 AM 59.8°F15.4°C 57.5°F14.2°C 92% 2.3 mph ESE3.7 kmh ESE 8.2 mph13.2 kmh 28.92 in979.3 mb 0.00 in0.0 mm 0.00 in0.0 mm 1.32 in33.5 mm
08:59 AM 59.8°F15.4°C 57.5°F14.2°C 92% 4.6 mph ESE7.4 kmh ESE 8.2 mph13.2 kmh 28.91 in979.0 mb 0.00 in0.0 mm 0.00 in0.0 mm 1.32 in33.5 mm
08:54 AM 59.8°F15.4°C 57.5°F14.2°C 92% 1.9 mph ESE3.1 kmh ESE 8.2 mph13.2 kmh 28.93 in979.7 mb 0.00 in0.0 mm 0.00 in0.0 mm 1.32 in33.5 mm
08:49 AM 59.8°F15.4°C 57.5°F14.2°C 92% 2.1 mph SE3.4 kmh SE 4.7 mph7.6 kmh 28.92 in979.3 mb 0.00 in0.0 mm 0.00 in0.0 mm 1.32 in33.5 mm
08:44 AM 59.8°F15.4°C 57.5°F14.2°C 92% 2.4 mph SE3.9 kmh SE 6.0 mph9.7 kmh 28.92 in979.3 mb 0.00 in0.0 mm 0.00 in0.0 mm 1.32 in33.5 mm
08:39 AM 59.8°F15.4°C 57.5°F14.2°C 92% 2.2 mph ESE3.5 kmh ESE 6.0 mph9.7 kmh 28.92 in979.3 mb 0.00 in0.0 mm 0.00 in0.0 mm 1.32 in33.5 mm
08:34 AM 59.8°F15.4°C 57.5°F14.2°C 92% 2.3 mph SE3.7 kmh SE 5.4 mph8.7 kmh 28.92 in979.3 mb 0.00 in0.0 mm 0.00 in0.0 mm 1.32 in33.5 mm
08:29 AM 59.8°F15.4°C 57.5°F14.2°C 92% 2.8 mph E4.5 kmh E 7.0 mph11.3 kmh 28.91 in979.0 mb 0.00 in0.0 mm 0.00 in0.0 mm 1.32 in33.5 mm
08:24 AM 59.8°F15.4°C 57.5°F14.2°C 92% 1.9 mph SE3.1 kmh SE 7.0 mph11.3 kmh 28.90 in978.7 mb 0.00 in0.0 mm 0.00 in0.0 mm 1.32 in33.5 mm
08:19 AM 59.8°F15.4°C 57.5°F14.2°C 92% 2.7 mph SE4.3 kmh SE 6.3 mph10.1 kmh 28.93 in979.7 mb 0.00 in0.0 mm 0.00 in0.0 mm 1.32 in33.5 mm
08:14 AM 59.8°F15.4°C 57.5°F14.2°C 92% 3.9 mph SE6.3 kmh SE 6.3 mph10.1 kmh 28.91 in979.0 mb 0.04 in1.0 mm 0.00 in0.0 mm 1.32 in33.5 mm
08:09 AM 59.8°F15.4°C 57.4°F14.1°C 92% 1.2 mph ESE1.9 kmh ESE 5.4 mph8.7 kmh 28.93 in979.7 mb 0.08 in2.0 mm 0.00 in0.0 mm 1.32 in33.5 mm
08:04 AM 59.8°F15.4°C 57.4°F14.1°C 92% 1.5 mph E2.4 kmh E 5.4 mph8.7 kmh 28.91 in979.0 mb 0.11 in2.8 mm 0.00 in0.0 mm 1.32 in33.5 mm
07:59 AM 59.8°F15.4°C 57.4°F14.1°C 92% 2.7 mph SE4.3 kmh SE 6.7 mph10.8 kmh 28.93 in979.7 mb 0.13 in3.3 mm 0.00 in0.0 mm 1.32 in33.5 mm
07:54 AM 59.8°F15.4°C 57.4°F14.1°C 92% 3.0 mph ESE4.8 kmh ESE 6.7 mph10.8 kmh 28.93 in979.7 mb 0.19 in4.8 mm 0.00 in0.0 mm 1.32 in33.5 mm
07:49 AM 59.8°F15.4°C 57.4°F14.1°C 92% 2.4 mph E3.9 kmh E 6.0 mph9.7 kmh 28.93 in979.7 mb 0.23 in5.8 mm 0.00 in0.0 mm 1.32 in33.5 mm
07:44 AM 59.8°F15.4°C 57.4°F14.1°C 92% 1.9 mph SE3.1 kmh SE 3.9 mph6.3 kmh 28.92 in979.3 mb 0.26 in6.6 mm 0.00 in0.0 mm 1.32 in33.5 mm
07:39 AM 59.8°F15.4°C 57.4°F14.1°C 92% 1.5 mph SE2.4 kmh SE 5.4 mph8.7 kmh 28.91 in979.0 mb 0.39 in9.9 mm 0.00 in0.0 mm 1.32 in33.5 mm
07:34 AM 59.6°F15.3°C 57.2°F14.0°C 92% 2.2 mph SE3.5 kmh SE 6.0 mph9.7 kmh 28.90 in978.7 mb 0.44 in11.2 mm 0.00 in0.0 mm 1.32 in33.5 mm
07:28 AM 59.6°F15.3°C 57.2°F14.0°C 92% 2.8 mph SE4.5 kmh SE 6.0 mph9.7 kmh 28.90 in978.7 mb 0.48 in12.2 mm 0.00 in0.0 mm 1.32 in33.5 mm
07:23 AM 59.6°F15.3°C 57.2°F14.0°C 92% 2.5 mph SE4.0 kmh SE 5.4 mph8.7 kmh 28.92 in979.3 mb 0.52 in13.2 mm 0.00 in0.0 mm 1.32 in33.5 mm
07:19 AM 59.8°F15.4°C 57.4°F14.1°C 92% 1.6 mph SE2.6 kmh SE 4.4 mph7.1 kmh 28.89 in978.3 mb 0.53 in13.5 mm 0.50 in12.7 mm 1.32 in33.5 mm
07:13 AM 59.8°F15.4°C 57.1°F13.9°C 91% 2.5 mph SE4.0 kmh SE 4.4 mph7.1 kmh 28.89 in978.3 mb 0.48 in12.2 mm 0.24 in6.1 mm 1.28 in32.5 mm
07:08 AM 59.8°F15.4°C 57.4°F14.1°C 92% 2.2 mph E3.5 kmh E 3.9 mph6.3 kmh 28.91 in979.0 mb 0.46 in11.7 mm 0.24 in6.1 mm 1.24 in31.5 mm
07:03 AM 59.8°F15.4°C 57.1°F13.9°C 91% 0.9 mph ESE1.4 kmh ESE 4.4 mph7.1 kmh 28.90 in978.7 mb 0.44 in11.2 mm 0.00 in0.0 mm 1.21 in30.7 mm
06:58 AM 59.8°F15.4°C 57.1°F13.9°C 91% 2.0 mph SSE3.2 kmh SSE 4.7 mph7.6 kmh 28.91 in979.0 mb 0.45 in11.4 mm 0.60 in15.2 mm 1.18 in30.0 mm
06:53 AM 59.8°F15.4°C 57.1°F13.9°C 91% 1.6 mph E2.6 kmh E 4.7 mph7.6 kmh 28.89 in978.3 mb 0.40 in10.2 mm 0.48 in12.2 mm 1.12 in28.4 mm
06:48 AM 59.8°F15.4°C 57.1°F13.9°C 91% 2.4 mph E3.9 kmh E 4.4 mph7.1 kmh 28.90 in978.7 mb 0.36 in9.1 mm 0.36 in9.1 mm 1.09 in27.7 mm
06:43 AM 59.8°F15.4°C 57.1°F13.9°C 91% 0.9 mph ESE1.4 kmh ESE 5.4 mph8.7 kmh 28.89 in978.3 mb 0.33 in8.4 mm 1.44 in36.6 mm 1.06 in26.9 mm
06:38 AM 59.8°F15.4°C 57.1°F13.9°C 91% 1.7 mph ESE2.7 kmh ESE 5.4 mph8.7 kmh 28.90 in978.7 mb 0.21 in5.3 mm 0.72 in18.3 mm 0.94 in23.9 mm
06:33 AM 59.8°F15.4°C 57.1°F13.9°C 91% 2.3 mph E3.7 kmh E 4.4 mph7.1 kmh 28.88 in978.0 mb 0.15 in3.8 mm 0.48 in12.2 mm 0.88 in22.4 mm
06:28 AM 59.8°F15.4°C 57.1°F13.9°C 91% 1.6 mph ENE2.6 kmh ENE 3.9 mph6.3 kmh 28.90 in978.7 mb 0.11 in2.8 mm 0.36 in9.1 mm 0.84 in21.3 mm
06:23 AM 59.8°F15.4°C 57.1°F13.9°C 91% 0.4 mph NNW0.6 kmh NNW 3.1 mph5.0 kmh 28.89 in978.3 mb 0.08 in2.0 mm 0.12 in3.0 mm 0.80 in20.3 mm
06:18 AM 59.8°F15.4°C 57.1°F13.9°C 91% 1.0 mph E1.6 kmh E 4.4 mph7.1 kmh 28.91 in979.0 mb 0.07 in1.8 mm 0.00 in0.0 mm 0.79 in20.1 mm
06:13 AM 59.6°F15.3°C 56.9°F13.8°C 91% 0.8 mph E1.3 kmh E 4.4 mph7.1 kmh 28.91 in979.0 mb 0.07 in1.8 mm 0.12 in3.0 mm 0.79 in20.1 mm
06:08 AM 59.6°F15.3°C 56.9°F13.8°C 91% 1.3 mph ENE2.1 kmh ENE 3.5 mph5.6 kmh 28.90 in978.7 mb 0.06 in1.5 mm 0.00 in0.0 mm 0.78 in19.8 mm
06:03 AM 59.6°F15.3°C 56.9°F13.8°C 91% 1.2 mph E1.9 kmh E 3.5 mph5.6 kmh 28.89 in978.3 mb 0.06 in1.5 mm 0.05 in1.3 mm 0.77 in19.6 mm
05:58 AM 59.6°F15.3°C 56.9°F13.8°C 91% 0.4 mph ESE0.6 kmh ESE 7.0 mph11.3 kmh 28.92 in979.3 mb 0.01 in0.3 mm 0.00 in0.0 mm 0.73 in18.5 mm
05:53 AM 59.6°F15.3°C 56.9°F13.8°C 91% 2.9 mph ESE4.7 kmh ESE 8.2 mph13.2 kmh 28.91 in979.0 mb 0.01 in0.3 mm 0.00 in0.0 mm 0.73 in18.5 mm
05:48 AM 59.4°F15.2°C 56.7°F13.7°C 91% 2.4 mph SSE3.9 kmh SSE 8.6 mph13.8 kmh 28.89 in978.3 mb 0.01 in0.3 mm 0.00 in0.0 mm 0.73 in18.5 mm
05:43 AM 59.4°F15.2°C 56.7°F13.7°C 91% 2.6 mph SE4.2 kmh SE 8.6 mph13.8 kmh 28.91 in979.0 mb 0.01 in0.3 mm 0.00 in0.0 mm 0.73 in18.5 mm
05:38 AM 59.4°F15.2°C 56.7°F13.7°C 91% 4.4 mph SSE7.1 kmh SSE 11.0 mph17.7 kmh 28.88 in978.0 mb 0.01 in0.3 mm 0.00 in0.0 mm 0.73 in18.5 mm
05:33 AM 59.4°F15.2°C 56.7°F13.7°C 91% 5.0 mph SE8.0 kmh SE 11.0 mph17.7 kmh 28.91 in979.0 mb 0.01 in0.3 mm 0.00 in0.0 mm 0.73 in18.5 mm
05:28 AM 59.2°F15.1°C 56.5°F13.6°C 91% 4.6 mph SE7.4 kmh SE 9.4 mph15.1 kmh 28.89 in978.3 mb 0.02 in0.5 mm 0.00 in0.0 mm 0.73 in18.5 mm
05:23 AM 59.2°F15.1°C 56.8°F13.8°C 92% 5.6 mph SSE9.0 kmh SSE 16.1 mph25.9 kmh 28.91 in979.0 mb 0.04 in1.0 mm 0.00 in0.0 mm 0.73 in18.5 mm
05:18 AM 59.0°F15.0°C 56.3°F13.5°C 91% 7.0 mph SE11.3 kmh SE 16.1 mph25.9 kmh 28.91 in979.0 mb 0.08 in2.0 mm 0.00 in0.0 mm 0.73 in18.5 mm
05:13 AM 58.9°F14.9°C 56.2°F13.4°C 91% 5.8 mph SE9.3 kmh SE 12.6 mph20.3 kmh 28.89 in978.3 mb 0.08 in2.0 mm 0.00 in0.0 mm 0.73 in18.5 mm
05:08 AM 58.7°F14.8°C 56.0°F13.3°C 91% 6.8 mph SE10.9 kmh SE 12.9 mph20.8 kmh 28.90 in978.7 mb 0.10 in2.5 mm 0.00 in0.0 mm 0.73 in18.5 mm
05:03 AM 58.5°F14.7°C 56.1°F13.4°C 92% 6.1 mph SE9.8 kmh SE 12.9 mph20.8 kmh 28.89 in978.3 mb 0.11 in2.8 mm 0.00 in0.0 mm 0.71 in18.0 mm
04:58 AM 58.5°F14.7°C 55.8°F13.2°C 91% 4.8 mph SE7.7 kmh SE 11.7 mph18.8 kmh 28.91 in979.0 mb 0.14 in3.6 mm 0.00 in0.0 mm 0.71 in18.0 mm
04:53 AM 58.5°F14.7°C 55.8°F13.2°C 91% 5.1 mph SE8.2 kmh SE 11.7 mph18.8 kmh 28.91 in979.0 mb 0.16 in4.1 mm 0.00 in0.0 mm 0.71 in18.0 mm
04:48 AM 58.5°F14.7°C 55.8°F13.2°C 91% 3.8 mph SE6.1 kmh SE 12.9 mph20.8 kmh 28.91 in979.0 mb 0.21 in5.3 mm 0.00 in0.0 mm 0.71 in18.0 mm
04:43 AM 58.7°F14.8°C 56.0°F13.3°C 91% 6.9 mph SE11.1 kmh SE 13.3 mph21.4 kmh 28.91 in979.0 mb 0.23 in5.8 mm 0.00 in0.0 mm 0.71 in18.0 mm
04:38 AM 58.9°F14.9°C 56.2°F13.4°C 91% 7.1 mph SE11.4 kmh SE 13.3 mph21.4 kmh 28.91 in979.0 mb 0.24 in6.1 mm 0.00 in0.0 mm 0.71 in18.0 mm
04:33 AM 59.0°F15.0°C 56.3°F13.5°C 91% 6.2 mph SSE10.0 kmh SSE 16.4 mph26.4 kmh 28.91 in979.0 mb 0.26 in6.6 mm 0.00 in0.0 mm 0.71 in18.0 mm
04:28 AM 59.4°F15.2°C 56.7°F13.7°C 91% 7.4 mph SE11.9 kmh SE 16.4 mph26.4 kmh 28.93 in979.7 mb 0.28 in7.1 mm 0.24 in6.1 mm 0.70 in17.8 mm
04:23 AM 59.8°F15.4°C 57.1°F13.9°C 91% 6.9 mph SE11.1 kmh SE 10.5 mph16.9 kmh 28.92 in979.3 mb 0.26 in6.6 mm 0.12 in3.0 mm 0.68 in17.3 mm
04:18 AM 59.8°F15.4°C 57.1°F13.9°C 91% 2.3 mph SE3.7 kmh SE 14.9 mph24.0 kmh 28.94 in980.0 mb 0.25 in6.4 mm 0.00 in0.0 mm 0.65 in16.5 mm
04:13 AM 59.8°F15.4°C 57.1°F13.9°C 91% 4.8 mph SSE7.7 kmh SSE 14.9 mph24.0 kmh 28.92 in979.3 mb 0.26 in6.6 mm 0.24 in6.1 mm 0.65 in16.5 mm
04:08 AM 59.8°F15.4°C 57.2°F14.0°C 91% 6.1 mph SE9.8 kmh SE 14.9 mph24.0 kmh 28.94 in980.0 mb 0.24 in6.1 mm 0.36 in9.1 mm 0.63 in16.0 mm
04:03 AM 60.0°F15.6°C 57.4°F14.1°C 91% 7.1 mph SSE11.4 kmh SSE 13.7 mph22.0 kmh 28.90 in978.7 mb 0.21 in5.3 mm 0.00 in0.0 mm 0.58 in14.7 mm
03:58 AM 60.2°F15.7°C 57.6°F14.2°C 91% 6.7 mph SE10.8 kmh SE 12.1 mph19.5 kmh 28.94 in980.0 mb 0.21 in5.3 mm 0.00 in0.0 mm 0.57 in14.5 mm
03:53 AM 60.4°F15.8°C 57.8°F14.3°C 91% 6.7 mph SE10.8 kmh SE 14.2 mph22.9 kmh 28.94 in980.0 mb 0.21 in5.3 mm 0.24 in6.1 mm 0.55 in14.0 mm
03:48 AM 60.4°F15.8°C 57.8°F14.3°C 91% 8.7 mph SE14.0 kmh SE 14.2 mph22.9 kmh 28.94 in980.0 mb 0.19 in4.8 mm 0.12 in3.0 mm 0.51 in13.0 mm
03:43 AM 60.4°F15.8°C 57.8°F14.3°C 91% 7.3 mph SE11.7 kmh SE 10.5 mph16.9 kmh 28.95 in980.4 mb 0.18 in4.6 mm 0.00 in0.0 mm 0.47 in11.9 mm
03:38 AM 60.4°F15.8°C 57.8°F14.3°C 91% 4.5 mph SE7.2 kmh SE 10.2 mph16.4 kmh 28.94 in980.0 mb 0.19 in4.8 mm 0.12 in3.0 mm 0.47 in11.9 mm
03:33 AM 60.6°F15.9°C 58.0°F14.4°C 91% 5.5 mph SE8.9 kmh SE 10.2 mph16.4 kmh 28.96 in980.7 mb 0.18 in4.6 mm 0.00 in0.0 mm 0.45 in11.4 mm
03:28 AM 60.6°F15.9°C 58.0°F14.4°C 91% 6.4 mph SE10.3 kmh SE 12.1 mph19.5 kmh 28.94 in980.0 mb 0.18 in4.6 mm 0.00 in0.0 mm 0.43 in10.9 mm
03:23 AM 60.6°F15.9°C 58.0°F14.4°C 91% 4.7 mph SE7.6 kmh SE 12.1 mph19.5 kmh 28.96 in980.7 mb 0.18 in4.6 mm 0.24 in6.1 mm 0.42 in10.7 mm
03:18 AM 60.6°F15.9°C 58.0°F14.4°C 91% 4.4 mph SSE7.1 kmh SSE 9.8 mph15.8 kmh 28.95 in980.4 mb 0.16 in4.1 mm 0.00 in0.0 mm 0.40 in10.2 mm
03:13 AM 60.6°F15.9°C 58.0°F14.4°C 91% 4.2 mph SSE6.8 kmh SSE 11.0 mph17.7 kmh 28.96 in980.7 mb 0.18 in4.6 mm 0.00 in0.0 mm 0.39 in9.9 mm
03:08 AM 60.6°F15.9°C 58.0°F14.4°C 91% 3.7 mph SE6.0 kmh SE 11.0 mph17.7 kmh 28.95 in980.4 mb 0.19 in4.8 mm 0.00 in0.0 mm 0.39 in9.9 mm
03:03 AM 60.7°F15.9°C 58.0°F14.4°C 91% 5.6 mph SE9.0 kmh SE 8.9 mph14.3 kmh 28.96 in980.7 mb 0.20 in5.1 mm 0.00 in0.0 mm 0.37 in9.4 mm
02:58 AM 60.7°F15.9°C 58.0°F14.4°C 91% 5.4 mph SE8.7 kmh SE 9.8 mph15.8 kmh 28.96 in980.7 mb 0.20 in5.1 mm 0.24 in6.1 mm 0.36 in9.1 mm
02:53 AM 60.9°F16.1°C 58.2°F14.6°C 91% 4.5 mph SSE7.2 kmh SSE 11.4 mph18.3 kmh 28.96 in980.7 mb 0.18 in4.6 mm 0.36 in9.1 mm 0.34 in8.6 mm
02:48 AM 60.9°F16.1°C 57.9°F14.4°C 90% 5.8 mph SE9.3 kmh SE 11.4 mph18.3 kmh 28.96 in980.7 mb 0.15 in3.8 mm 0.24 in6.1 mm 0.32 in8.1 mm
02:43 AM 61.1°F16.2°C 58.4°F14.7°C 91% 5.1 mph SSE8.2 kmh SSE 11.7 mph18.8 kmh 28.95 in980.4 mb 0.13 in3.3 mm 0.00 in0.0 mm 0.30 in7.6 mm
02:38 AM 61.1°F16.2°C 58.1°F14.5°C 90% 5.2 mph SE8.4 kmh SE 11.7 mph18.8 kmh 28.96 in980.7 mb 0.13 in3.3 mm 0.12 in3.0 mm 0.29 in7.4 mm
02:33 AM 61.1°F16.2°C 58.1°F14.5°C 90% 5.4 mph SE8.7 kmh SE 9.4 mph15.1 kmh 28.93 in979.7 mb 0.12 in3.0 mm 0.24 in6.1 mm 0.28 in7.1 mm
02:28 AM 61.1°F16.2°C 58.1°F14.5°C 90% 4.1 mph ESE6.6 kmh ESE 8.2 mph13.2 kmh 28.97 in981.0 mb 0.10 in2.5 mm 0.12 in3.0 mm 0.25 in6.4 mm
02:23 AM 61.1°F16.2°C 58.1°F14.5°C 90% 2.5 mph SE4.0 kmh SE 5.4 mph8.7 kmh 28.96 in980.7 mb 0.09 in2.3 mm 0.00 in0.0 mm 0.24 in6.1 mm
02:18 AM 61.1°F16.2°C 58.1°F14.5°C 90% 1.9 mph SE3.1 kmh SE 6.7 mph10.8 kmh 28.97 in981.0 mb 0.09 in2.3 mm 0.24 in6.1 mm 0.23 in5.8 mm
02:13 AM 61.1°F16.2°C 58.1°F14.5°C 90% 2.7 mph ESE4.3 kmh ESE 7.0 mph11.3 kmh 28.97 in981.0 mb 0.07 in1.8 mm 0.24 in6.1 mm 0.21 in5.3 mm
02:08 AM 61.1°F16.2°C 58.1°F14.5°C 90% 3.4 mph E5.5 kmh E 7.0 mph11.3 kmh 28.98 in981.4 mb 0.05 in1.3 mm 0.12 in3.0 mm 0.20 in5.1 mm
02:03 AM 61.1°F16.2°C 58.1°F14.5°C 90% 3.4 mph SE5.5 kmh SE 6.7 mph10.8 kmh 28.96 in980.7 mb 0.04 in1.0 mm 0.00 in0.0 mm 0.18 in4.6 mm
01:58 AM 61.1°F16.2°C 58.1°F14.5°C 90% 2.1 mph SE3.4 kmh SE 6.7 mph10.8 kmh 28.98 in981.4 mb 0.04 in1.0 mm 0.00 in0.0 mm 0.16 in4.1 mm
01:53 AM 61.1°F16.2°C 58.1°F14.5°C 90% 2.8 mph SE4.5 kmh SE 7.0 mph11.3 kmh 28.97 in981.0 mb 0.04 in1.0 mm 0.00 in0.0 mm 0.16 in4.1 mm
01:48 AM 61.1°F16.2°C 58.1°F14.5°C 90% 3.8 mph SE6.1 kmh SE 7.0 mph11.3 kmh 28.97 in981.0 mb 0.07 in1.8 mm 0.00 in0.0 mm 0.16 in4.1 mm
01:43 AM 61.1°F16.2°C 58.1°F14.5°C 90% 2.1 mph SE3.4 kmh SE 6.7 mph10.8 kmh 28.99 in981.7 mb 0.08 in2.0 mm 0.00 in0.0 mm 0.16 in4.1 mm
01:38 AM 61.1°F16.2°C 58.1°F14.5°C 90% 1.2 mph E1.9 kmh E 9.4 mph15.1 kmh 28.99 in981.7 mb 0.08 in2.0 mm 0.00 in0.0 mm 0.15 in3.8 mm
01:33 AM 61.1°F16.2°C 58.1°F14.5°C 90% 1.8 mph SE2.9 kmh SE 11.0 mph17.7 kmh 28.99 in981.7 mb 0.10 in2.5 mm 0.00 in0.0 mm 0.15 in3.8 mm
01:28 AM 61.1°F16.2°C 58.1°F14.5°C 90% 2.4 mph SE3.9 kmh SE 11.0 mph17.7 kmh 28.97 in981.0 mb 0.10 in2.5 mm 0.00 in0.0 mm 0.15 in3.8 mm
01:23 AM 61.1°F16.2°C 58.1°F14.5°C 90% 2.1 mph E3.4 kmh E 8.2 mph13.2 kmh 28.99 in981.7 mb 0.12 in3.0 mm 0.12 in3.0 mm 0.15 in3.8 mm
01:18 AM 61.3°F16.3°C 58.3°F14.6°C 90% 3.3 mph SE5.3 kmh SE 7.0 mph11.3 kmh 28.98 in981.4 mb 0.11 in2.8 mm 0.00 in0.0 mm 0.14 in3.6 mm
01:13 AM 61.3°F16.3°C 58.3°F14.6°C 90% 1.9 mph SE3.1 kmh SE 7.0 mph11.3 kmh 28.99 in981.7 mb 0.12 in3.0 mm 0.00 in0.0 mm 0.14 in3.6 mm
01:08 AM 61.3°F16.3°C 58.3°F14.6°C 90% 2.0 mph SE3.2 kmh SE 7.0 mph11.3 kmh 28.99 in981.7 mb 0.12 in3.0 mm 0.00 in0.0 mm 0.14 in3.6 mm
01:03 AM 61.3°F16.3°C 58.3°F14.6°C 90% 3.5 mph SE5.6 kmh SE 7.0 mph11.3 kmh 28.99 in981.7 mb 0.12 in3.0 mm 0.00 in0.0 mm 0.13 in3.3 mm
12:58 AM 61.1°F16.2°C 58.1°F14.5°C 90% 2.3 mph SE3.7 kmh SE 4.4 mph7.1 kmh 29.00 in982.1 mb 0.12 in3.0 mm 0.00 in0.0 mm 0.12 in3.0 mm
12:53 AM 61.3°F16.3°C 58.3°F14.6°C 90% 1.1 mph SSE1.8 kmh SSE 7.0 mph11.3 kmh 29.00 in982.1 mb 0.12 in3.0 mm 0.00 in0.0 mm 0.11 in2.8 mm
12:48 AM 61.3°F16.3°C 58.3°F14.6°C 90% 3.1 mph E5.0 kmh E 7.0 mph11.3 kmh 28.99 in981.7 mb 0.12 in3.0 mm 0.12 in3.0 mm 0.10 in2.5 mm
12:43 AM 61.3°F16.3°C 58.3°F14.6°C 90% 1.9 mph SE3.1 kmh SE 7.0 mph11.3 kmh 28.99 in981.7 mb 0.11 in2.8 mm 0.00 in0.0 mm 0.09 in2.3 mm
12:37 AM 61.3°F16.3°C 58.3°F14.6°C 90% 3.7 mph SE6.0 kmh SE 8.9 mph14.3 kmh 29.00 in982.1 mb 0.12 in3.0 mm 0.24 in6.1 mm 0.08 in2.0 mm
12:32 AM 61.3°F16.3°C 58.3°F14.6°C 90% 4.6 mph E7.4 kmh E 8.9 mph14.3 kmh 28.97 in981.0 mb 0.10 in2.5 mm 0.00 in0.0 mm 0.06 in1.5 mm
12:27 AM 61.3°F16.3°C 58.3°F14.6°C 90% 3.0 mph ESE4.8 kmh ESE 6.3 mph10.1 kmh 28.99 in981.7 mb 0.12 in3.0 mm 0.24 in6.1 mm 0.06 in1.5 mm
12:22 AM 61.3°F16.3°C 58.3°F14.6°C 90% 2.2 mph E3.5 kmh E 7.9 mph12.7 kmh 28.98 in981.4 mb 0.10 in2.5 mm 0.00 in0.0 mm 0.03 in0.8 mm
12:17 AM 61.5°F16.4°C 58.5°F14.7°C 90% 4.1 mph E6.6 kmh E 7.9 mph12.7 kmh 28.99 in981.7 mb 0.12 in3.0 mm 0.12 in3.0 mm 0.03 in0.8 mm
12:12 AM 61.3°F16.3°C 58.3°F14.6°C 90% 3.2 mph SE5.1 kmh SE 5.4 mph8.7 kmh 28.99 in981.7 mb 0.11 in2.8 mm 0.00 in0.0 mm 0.02 in0.5 mm
12:07 AM 61.5°F16.4°C 58.5°F14.7°C 90% 1.9 mph SE3.1 kmh SE 7.9 mph12.7 kmh 28.99 in981.7 mb 0.11 in2.8 mm 0.12 in3.0 mm 0.02 in0.5 mm
12:02 AM 61.5°F16.4°C 58.5°F14.7°C 90% 2.7 mph SE4.3 kmh SE 7.9 mph12.7 kmh 28.99 in981.7 mb 0.10 in2.5 mm 3.00 in76.2 mm 0.01 in0.3 mm